createdAt,value
2017-07-31T00:00:32.774Z,19.90
2017-07-31T00:03:00.244Z,19.80
2017-07-31T00:05:27.742Z,19.80
2017-07-31T00:07:55.301Z,19.80
2017-07-31T00:10:22.769Z,19.80
2017-07-31T00:12:51.030Z,19.80
2017-07-31T00:15:18.508Z,19.80
2017-07-31T00:17:46.773Z,19.80
2017-07-31T00:20:15.029Z,19.80
2017-07-31T00:22:42.498Z,19.80
2017-07-31T00:25:09.976Z,19.80
2017-07-31T00:27:38.228Z,19.70
2017-07-31T00:30:05.701Z,19.70
2017-07-31T00:32:33.937Z,19.80
2017-07-31T00:35:01.433Z,19.80
2017-07-31T00:37:29.669Z,19.80
2017-07-31T00:39:57.141Z,19.80
2017-07-31T00:42:24.969Z,19.90
2017-07-31T00:44:52.437Z,19.90
2017-07-31T00:47:19.908Z,19.80
2017-07-31T00:49:47.396Z,19.80
2017-07-31T00:52:15.636Z,19.70
2017-07-31T00:54:43.340Z,19.70
2017-07-31T00:57:10.840Z,19.70
2017-07-31T00:59:38.309Z,19.80
2017-07-31T01:02:05.782Z,19.80
2017-07-31T01:04:33.273Z,19.80
2017-07-31T01:07:01.508Z,19.80
2017-07-31T01:09:28.980Z,19.70
2017-07-31T01:11:56.681Z,19.80
2017-07-31T01:14:24.466Z,19.80
2017-07-31T01:16:51.937Z,19.70
2017-07-31T01:19:19.723Z,19.70
2017-07-31T01:21:47.196Z,19.60
2017-07-31T01:24:15.433Z,19.70
2017-07-31T01:26:42.924Z,19.60
2017-07-31T01:29:11.162Z,19.70
2017-07-31T01:31:38.643Z,19.70
2017-07-31T01:34:06.133Z,19.70
2017-07-31T01:36:33.604Z,19.70
2017-07-31T01:39:01.078Z,19.60
2017-07-31T01:41:28.569Z,19.50
2017-07-31T01:43:56.040Z,19.40
2017-07-31T01:46:23.543Z,19.40
2017-07-31T01:48:51.036Z,19.30
2017-07-31T01:51:18.505Z,19.30
2017-07-31T01:53:45.976Z,19.20
2017-07-31T01:56:14.237Z,19.10
2017-07-31T01:58:41.713Z,19.00
2017-07-31T02:01:09.948Z,18.90
2017-07-31T02:03:37.449Z,18.90
2017-07-31T02:06:05.685Z,18.80
2017-07-31T02:08:33.201Z,18.80
2017-07-31T02:11:00.725Z,18.80
2017-07-31T02:13:29.181Z,18.90
2017-07-31T02:15:56.645Z,18.90
2017-07-31T02:18:24.153Z,18.90
2017-07-31T02:20:51.629Z,18.80
2017-07-31T02:23:19.097Z,18.80
2017-07-31T02:25:46.593Z,18.70
2017-07-31T02:28:14.973Z,18.80
2017-07-31T02:30:43.501Z,18.80
2017-07-31T02:33:11.013Z,18.80
2017-07-31T02:35:39.249Z,18.70
2017-07-31T02:38:06.721Z,18.70
2017-07-31T02:40:34.213Z,18.70
2017-07-31T02:43:02.453Z,18.70
2017-07-31T02:45:29.933Z,18.70
2017-07-31T02:47:58.189Z,18.60
2017-07-31T02:50:25.657Z,18.60
2017-07-31T02:52:53.148Z,18.60
2017-07-31T02:55:20.641Z,18.60
2017-07-31T02:57:48.113Z,18.70
2017-07-31T03:00:15.586Z,18.60
2017-07-31T03:02:43.152Z,18.70
2017-07-31T03:05:10.621Z,18.70
2017-07-31T03:07:38.861Z,18.60
2017-07-31T03:10:06.396Z,18.60
2017-07-31T03:12:33.988Z,18.60
2017-07-31T03:15:01.457Z,18.50
2017-07-31T03:17:29.717Z,18.40
2017-07-31T03:19:57.189Z,18.40
2017-07-31T03:22:24.658Z,18.30
2017-07-31T03:24:52.915Z,18.30
2017-07-31T03:27:20.420Z,18.30
2017-07-31T03:29:47.981Z,18.30
2017-07-31T03:32:15.468Z,18.20
2017-07-31T03:34:42.941Z,18.00
2017-07-31T03:37:10.413Z,17.90
2017-07-31T03:39:38.669Z,17.80
2017-07-31T03:42:06.138Z,17.80
2017-07-31T03:44:33.612Z,17.80
2017-07-31T03:47:01.870Z,17.80
2017-07-31T03:49:29.341Z,17.80
2017-07-31T03:51:57.585Z,17.80
2017-07-31T03:54:25.076Z,17.80
2017-07-31T03:56:52.553Z,17.80
2017-07-31T03:59:20.069Z,17.70
2017-07-31T04:01:47.564Z,17.60
2017-07-31T04:04:15.053Z,17.60
2017-07-31T04:06:42.559Z,17.50
2017-07-31T04:09:10.825Z,17.50
2017-07-31T04:11:39.064Z,17.50
2017-07-31T04:14:06.533Z,17.50
2017-07-31T04:16:34.021Z,17.30
2017-07-31T04:19:02.264Z,17.20
2017-07-31T04:21:29.742Z,17.20
2017-07-31T04:23:57.242Z,17.20
2017-07-31T04:26:25.017Z,17.30
2017-07-31T04:28:52.512Z,17.40
2017-07-31T04:31:20.005Z,17.40
2017-07-31T04:33:47.478Z,17.50
2017-07-31T04:36:14.957Z,17.50
2017-07-31T04:38:42.461Z,17.50
2017-07-31T04:41:10.713Z,17.50
2017-07-31T04:43:38.184Z,17.50
2017-07-31T04:46:05.676Z,17.50
2017-07-31T04:48:33.149Z,17.60
2017-07-31T04:51:01.385Z,17.40
2017-07-31T04:53:28.880Z,17.30
2017-07-31T04:55:56.353Z,17.40
2017-07-31T04:58:23.825Z,17.40
2017-07-31T05:00:51.318Z,17.50
2017-07-31T05:03:19.573Z,17.70
2017-07-31T05:05:47.048Z,17.70
2017-07-31T05:08:15.308Z,18.60
2017-07-31T05:10:42.784Z,18.60
2017-07-31T05:13:11.017Z,19.40
2017-07-31T05:15:38.509Z,19.40
2017-07-31T05:18:05.976Z,19.80
2017-07-31T05:20:34.209Z,20.40
2017-07-31T05:23:01.697Z,20.40
2017-07-31T05:25:29.933Z,20.70
2017-07-31T05:27:57.414Z,20.70
2017-07-31T05:30:24.908Z,20.90
2017-07-31T05:32:52.429Z,21.10
2017-07-31T05:35:19.904Z,21.20
2017-07-31T05:37:48.161Z,21.60
2017-07-31T05:40:15.630Z,21.60
2017-07-31T05:42:43.866Z,22.00
2017-07-31T05:45:11.360Z,22.00
2017-07-31T05:47:39.597Z,22.40
2017-07-31T05:50:07.074Z,22.40
2017-07-31T05:52:34.569Z,22.40
2017-07-31T05:55:02.037Z,22.50
2017-07-31T05:57:29.509Z,22.50
2017-07-31T05:59:57.001Z,22.50
2017-07-31T06:02:24.474Z,22.60
2017-07-31T06:04:51.945Z,22.60
2017-07-31T06:07:20.216Z,22.90
2017-07-31T06:09:48.505Z,22.90
2017-07-31T06:12:15.982Z,22.80
2017-07-31T06:14:43.473Z,23.00
2017-07-31T06:17:10.949Z,23.10
2017-07-31T06:19:38.420Z,23.10
2017-07-31T06:22:06.681Z,22.90
2017-07-31T06:24:34.154Z,22.90
2017-07-31T06:27:01.625Z,22.90
2017-07-31T06:29:29.117Z,22.70
2017-07-31T06:31:56.585Z,22.70
2017-07-31T06:34:24.057Z,22.70
2017-07-31T06:36:51.930Z,22.90
2017-07-31T06:39:19.397Z,23.30
2017-07-31T06:41:47.637Z,23.80
2017-07-31T06:44:15.130Z,23.70
2017-07-31T06:46:42.605Z,23.50
2017-07-31T06:49:10.077Z,23.60
2017-07-31T06:51:37.573Z,23.70
2017-07-31T06:54:05.045Z,23.70
2017-07-31T06:56:32.522Z,23.60
2017-07-31T06:59:00.018Z,24.00
2017-07-31T07:01:27.489Z,24.20
2017-07-31T07:03:54.961Z,24.00
2017-07-31T07:06:22.521Z,24.30
2017-07-31T07:08:49.995Z,24.70
2017-07-31T07:11:17.468Z,25.20
2017-07-31T07:13:44.962Z,25.00
2017-07-31T07:16:12.437Z,24.60
2017-07-31T07:18:40.185Z,24.80
2017-07-31T07:21:07.681Z,25.30
2017-07-31T07:23:35.194Z,25.30
2017-07-31T07:26:02.673Z,25.00
2017-07-31T07:28:30.165Z,25.10
2017-07-31T07:30:58.409Z,25.40
2017-07-31T07:33:25.885Z,25.40
2017-07-31T07:35:53.376Z,26.30
2017-07-31T07:38:20.849Z,26.50
2017-07-31T07:40:48.320Z,26.10
2017-07-31T07:43:15.809Z,26.00
2017-07-31T07:45:43.277Z,25.80
2017-07-31T07:48:10.746Z,26.30
2017-07-31T07:50:39.009Z,25.60
2017-07-31T07:53:06.485Z,25.60
2017-07-31T07:55:34.720Z,25.80
2017-07-31T07:58:02.211Z,25.80
2017-07-31T08:00:30.449Z,26.70
2017-07-31T08:02:57.917Z,26.60
2017-07-31T08:05:25.409Z,27.00
2017-07-31T08:07:53.645Z,26.60
2017-07-31T08:10:21.120Z,26.60
2017-07-31T08:12:48.612Z,27.00
2017-07-31T08:15:16.186Z,27.60
2017-07-31T08:17:43.953Z,28.30
2017-07-31T08:20:11.449Z,28.30
2017-07-31T08:22:38.925Z,27.90
2017-07-31T08:25:07.248Z,29.20
2017-07-31T08:27:34.741Z,29.10
2017-07-31T08:30:02.213Z,29.10
2017-07-31T08:32:30.453Z,27.60
2017-07-31T08:34:57.970Z,27.60
2017-07-31T08:37:25.454Z,27.70
2017-07-31T08:39:52.930Z,27.60
2017-07-31T08:42:20.417Z,28.00
2017-07-31T08:44:48.653Z,27.30
2017-07-31T08:47:16.122Z,27.30
2017-07-31T08:49:43.617Z,27.50
2017-07-31T08:52:11.856Z,27.80
2017-07-31T08:54:39.330Z,27.80
2017-07-31T08:57:06.821Z,27.60
2017-07-31T08:59:34.289Z,27.50
2017-07-31T09:02:01.758Z,27.50
2017-07-31T09:04:29.261Z,27.20
2017-07-31T09:06:56.729Z,27.50
2017-07-31T09:09:24.969Z,28.50
2017-07-31T09:11:52.465Z,28.50
2017-07-31T09:14:20.981Z,28.70
2017-07-31T09:16:48.453Z,28.70
2017-07-31T09:19:15.949Z,28.70
2017-07-31T09:21:44.184Z,29.70
2017-07-31T09:24:11.657Z,29.70
2017-07-31T09:26:39.157Z,29.40
2017-07-31T09:29:06.629Z,28.40
2017-07-31T09:31:34.097Z,28.80
2017-07-31T09:34:01.600Z,28.60
2017-07-31T09:36:29.070Z,29.20
2017-07-31T09:38:57.308Z,29.40
2017-07-31T09:41:24.801Z,29.40
2017-07-31T09:43:53.036Z,29.50
2017-07-31T09:46:20.504Z,29.40
2017-07-31T09:48:48.005Z,29.70
2017-07-31T09:51:15.478Z,29.40
2017-07-31T09:53:42.945Z,29.10
2017-07-31T09:56:10.442Z,29.70
2017-07-31T09:58:37.909Z,29.70
2017-07-31T10:01:05.377Z,29.60
2017-07-31T10:03:33.645Z,29.00
2017-07-31T10:06:01.885Z,28.80
2017-07-31T10:08:29.352Z,28.80
2017-07-31T10:10:56.849Z,29.20
2017-07-31T10:13:25.085Z,29.40
2017-07-31T10:15:52.553Z,29.40
2017-07-31T10:18:20.046Z,29.90
2017-07-31T10:20:47.522Z,29.50
2017-07-31T10:23:14.994Z,29.50
2017-07-31T10:25:42.906Z,29.40
2017-07-31T10:28:11.148Z,29.00
2017-07-31T10:30:38.620Z,28.90
2017-07-31T10:33:06.112Z,28.70
2017-07-31T10:35:33.612Z,28.60
2017-07-31T10:38:01.084Z,28.60
2017-07-31T10:40:28.576Z,28.40
2017-07-31T10:42:56.808Z,28.40
2017-07-31T10:45:24.280Z,28.40
2017-07-31T10:47:51.778Z,28.70
2017-07-31T10:50:19.249Z,28.50
2017-07-31T10:52:46.724Z,29.00
2017-07-31T10:55:14.217Z,29.90
2017-07-31T10:57:41.685Z,30.20
2017-07-31T11:00:09.921Z,30.30
2017-07-31T11:02:37.417Z,30.30
2017-07-31T11:05:05.652Z,31.10
2017-07-31T11:07:33.121Z,31.10
2017-07-31T11:10:00.612Z,30.80
2017-07-31T11:12:28.849Z,31.20
2017-07-31T11:14:56.317Z,31.20
2017-07-31T11:17:23.809Z,31.30
2017-07-31T11:19:51.282Z,31.60
2017-07-31T11:22:18.753Z,31.60
2017-07-31T11:24:46.245Z,32.10
2017-07-31T11:27:13.713Z,32.50
2017-07-31T11:29:41.184Z,32.30
2017-07-31T11:32:09.441Z,31.90
2017-07-31T11:34:36.914Z,31.90
2017-07-31T11:37:05.152Z,31.70
2017-07-31T11:39:32.640Z,31.70
2017-07-31T11:42:00.113Z,31.50
2017-07-31T11:44:27.588Z,31.60
2017-07-31T11:46:55.077Z,32.50
2017-07-31T11:49:22.597Z,33.20
2017-07-31T11:51:50.089Z,33.10
2017-07-31T11:54:17.580Z,32.70
2017-07-31T11:56:45.050Z,32.90
2017-07-31T11:59:13.297Z,34.30
2017-07-31T12:01:40.794Z,34.20
2017-07-31T12:04:08.264Z,33.60
2017-07-31T12:06:35.749Z,33.00
2017-07-31T12:09:03.268Z,32.30
2017-07-31T12:11:30.732Z,31.60
2017-07-31T12:13:58.201Z,30.90
2017-07-31T12:16:25.697Z,30.60
2017-07-31T12:18:53.165Z,30.30
2017-07-31T12:21:20.637Z,29.70
2017-07-31T12:23:49.161Z,29.90
2017-07-31T12:26:16.633Z,29.80
2017-07-31T12:28:44.105Z,29.40
2017-07-31T12:31:11.609Z,29.70
2017-07-31T12:33:39.129Z,29.60
2017-07-31T12:36:06.601Z,29.70
2017-07-31T12:38:34.204Z,29.60
2017-07-31T12:41:01.968Z,29.80
2017-07-31T12:43:29.436Z,29.50
2017-07-31T12:45:56.934Z,29.10
2017-07-31T12:48:24.421Z,29.30
2017-07-31T12:50:51.899Z,29.50
2017-07-31T12:53:19.417Z,29.70
2017-07-31T12:55:46.898Z,29.90
2017-07-31T12:58:14.369Z,29.70
2017-07-31T13:00:41.860Z,29.50
2017-07-31T13:03:09.335Z,29.40
2017-07-31T13:05:37.580Z,29.00
2017-07-31T13:08:05.069Z,28.90
2017-07-31T13:10:33.405Z,28.80
2017-07-31T13:13:01.157Z,28.40
2017-07-31T13:15:28.649Z,27.90
2017-07-31T13:17:56.125Z,27.70
2017-07-31T13:20:24.360Z,27.70
2017-07-31T13:22:52.109Z,27.70
2017-07-31T13:25:19.580Z,27.80
2017-07-31T13:27:47.053Z,27.80
2017-07-31T13:30:14.545Z,27.70
2017-07-31T13:32:42.780Z,27.50
2017-07-31T13:35:10.256Z,27.50
2017-07-31T13:37:37.750Z,27.50
2017-07-31T13:40:05.229Z,27.40
2017-07-31T13:42:32.697Z,27.40
2017-07-31T13:45:00.190Z,27.10
2017-07-31T13:47:27.769Z,27.00
2017-07-31T13:49:55.261Z,26.80
2017-07-31T13:52:22.754Z,26.80
2017-07-31T13:54:50.225Z,26.80
2017-07-31T13:57:17.699Z,26.90
2017-07-31T13:59:45.193Z,27.00
2017-07-31T14:02:12.674Z,27.10
2017-07-31T14:04:40.149Z,27.10
2017-07-31T14:07:07.640Z,27.30
2017-07-31T14:09:35.113Z,27.50
2017-07-31T14:12:02.581Z,27.60
2017-07-31T14:14:30.074Z,27.60
2017-07-31T14:16:58.708Z,27.60
2017-07-31T14:19:26.186Z,27.50
2017-07-31T14:21:53.676Z,27.50
2017-07-31T14:24:21.912Z,27.50
2017-07-31T14:26:49.383Z,27.40
2017-07-31T14:29:16.877Z,27.40
2017-07-31T14:31:45.113Z,27.40
2017-07-31T14:34:12.583Z,27.30
2017-07-31T14:36:40.409Z,27.40
2017-07-31T14:39:07.877Z,27.30
2017-07-31T14:41:35.350Z,27.40
2017-07-31T14:44:02.848Z,27.50
2017-07-31T14:46:31.085Z,28.00
2017-07-31T14:48:58.558Z,27.90
2017-07-31T14:51:26.053Z,28.20
2017-07-31T14:53:53.526Z,28.30
2017-07-31T14:56:21.013Z,28.40
2017-07-31T14:58:48.508Z,28.60
2017-07-31T15:01:16.753Z,28.50
2017-07-31T15:03:44.226Z,28.50
2017-07-31T15:06:12.494Z,28.40
2017-07-31T15:08:39.969Z,28.40
2017-07-31T15:11:08.210Z,28.20
2017-07-31T15:13:35.918Z,28.20
2017-07-31T15:16:03.392Z,28.20
2017-07-31T15:18:30.869Z,28.00
2017-07-31T15:20:58.361Z,28.00
2017-07-31T15:23:25.829Z,28.00
2017-07-31T15:25:54.066Z,28.00
2017-07-31T15:28:21.557Z,28.00
2017-07-31T15:30:50.013Z,28.00
2017-07-31T15:33:17.486Z,28.00
2017-07-31T15:35:45.205Z,27.90
2017-07-31T15:38:12.677Z,28.00
2017-07-31T15:40:40.173Z,28.00
2017-07-31T15:43:08.437Z,28.00
2017-07-31T15:45:36.668Z,28.00
2017-07-31T15:48:04.826Z,28.00
2017-07-31T15:50:32.525Z,28.00
2017-07-31T15:53:00.628Z,28.10
2017-07-31T15:55:28.190Z,28.00
2017-07-31T15:57:56.454Z,28.00
2017-07-31T16:00:23.929Z,27.90
2017-07-31T16:02:52.169Z,27.90
2017-07-31T16:05:19.674Z,27.90
2017-07-31T16:07:47.157Z,28.00
2017-07-31T16:10:14.919Z,28.00
2017-07-31T16:12:42.415Z,28.00
2017-07-31T16:15:09.900Z,28.00
2017-07-31T16:17:37.377Z,28.00
2017-07-31T16:20:04.868Z,28.00
2017-07-31T16:22:32.337Z,28.00
2017-07-31T16:24:59.806Z,28.00
2017-07-31T16:27:27.297Z,28.00
2017-07-31T16:29:54.780Z,28.00
2017-07-31T16:32:22.253Z,28.00
2017-07-31T16:34:49.749Z,28.00
2017-07-31T16:37:29.934Z,28.00
2017-07-31T16:40:00.429Z,28.00
2017-07-31T16:42:40.622Z,28.00
2017-07-31T16:45:08.117Z,28.00
2017-07-31T16:47:42.532Z,27.90
2017-07-31T16:50:12.893Z,27.90
2017-07-31T16:52:41.197Z,27.90
2017-07-31T16:55:08.669Z,27.80
2017-07-31T16:57:36.161Z,27.90
2017-07-31T17:00:03.634Z,27.90
2017-07-31T17:02:31.884Z,27.80
2017-07-31T17:04:59.382Z,27.70
2017-07-31T17:07:26.857Z,27.70
2017-07-31T17:09:54.329Z,27.70
2017-07-31T17:12:21.825Z,27.70
2017-07-31T17:14:49.296Z,27.60
2017-07-31T17:17:17.532Z,27.50
2017-07-31T17:19:45.021Z,27.40
2017-07-31T17:22:13.273Z,27.50
2017-07-31T17:24:40.797Z,27.50
2017-07-31T17:27:08.293Z,27.50
2017-07-31T17:29:35.760Z,27.50
2017-07-31T17:32:03.263Z,27.50
2017-07-31T17:34:30.752Z,27.40
2017-07-31T17:36:58.221Z,27.40
2017-07-31T17:39:25.688Z,27.30
2017-07-31T17:41:53.180Z,27.30
2017-07-31T17:44:20.651Z,27.20
2017-07-31T17:46:48.124Z,27.20
2017-07-31T17:49:15.618Z,27.10
2017-07-31T17:51:43.089Z,27.10
2017-07-31T17:54:11.325Z,27.20
2017-07-31T17:56:38.814Z,27.10
2017-07-31T17:59:07.057Z,27.10
2017-07-31T18:01:34.532Z,27.10
2017-07-31T18:04:02.031Z,27.10
2017-07-31T18:06:29.505Z,27.10
2017-07-31T18:08:57.004Z,27.00
2017-07-31T18:11:24.498Z,27.00
2017-07-31T18:13:52.052Z,26.90
2017-07-31T18:16:19.531Z,26.90
2017-07-31T18:18:47.050Z,26.90
2017-07-31T18:21:15.289Z,26.90
2017-07-31T18:23:42.765Z,26.90
2017-07-31T18:26:10.262Z,26.90
2017-07-31T18:28:37.738Z,26.90
2017-07-31T18:31:05.209Z,26.80
2017-07-31T18:33:32.705Z,26.80
2017-07-31T18:36:00.176Z,26.80
2017-07-31T18:38:28.464Z,26.70
2017-07-31T18:40:55.978Z,26.70
2017-07-31T18:43:23.468Z,26.60
2017-07-31T18:45:51.705Z,26.50
2017-07-31T18:48:19.198Z,26.50
2017-07-31T18:50:46.800Z,26.50
2017-07-31T18:53:14.281Z,26.50
2017-07-31T18:55:41.778Z,26.50
2017-07-31T18:58:09.254Z,26.40
2017-07-31T19:00:36.728Z,26.30
2017-07-31T19:03:04.225Z,26.30
2017-07-31T19:05:37.269Z,26.20
2017-07-31T19:08:12.908Z,26.20
2017-07-31T19:10:48.110Z,26.00
2017-07-31T19:13:23.563Z,25.90
2017-07-31T19:15:59.553Z,25.70
2017-07-31T19:18:34.604Z,25.70
2017-07-31T19:21:09.144Z,25.60
2017-07-31T19:23:36.639Z,25.50
2017-07-31T19:26:04.113Z,25.40
2017-07-31T19:28:31.598Z,25.40
2017-07-31T19:30:59.104Z,25.40
2017-07-31T19:33:26.650Z,25.20
2017-07-31T19:35:54.129Z,25.20
2017-07-31T19:38:21.625Z,25.10
2017-07-31T19:40:49.093Z,24.90
2017-07-31T19:43:16.565Z,24.90
2017-07-31T19:45:44.058Z,24.90
2017-07-31T19:48:11.533Z,24.90
2017-07-31T19:50:39.005Z,24.90
2017-07-31T19:53:06.760Z,24.90
2017-07-31T19:55:34.233Z,24.80
2017-07-31T19:58:01.701Z,24.80
2017-07-31T20:00:29.197Z,24.80
2017-07-31T20:02:56.669Z,24.80
2017-07-31T20:05:24.190Z,24.80
2017-07-31T20:07:51.681Z,24.70
2017-07-31T20:10:19.465Z,24.80
2017-07-31T20:12:47.676Z,24.80
2017-07-31T20:15:15.962Z,24.60
2017-07-31T20:17:43.433Z,24.50
2017-07-31T20:20:11.153Z,24.50
2017-07-31T20:22:39.385Z,24.50
2017-07-31T20:25:07.869Z,24.40
2017-07-31T20:27:37.044Z,24.30
2017-07-31T20:30:05.409Z,24.20
2017-07-31T20:32:32.892Z,24.20
2017-07-31T20:35:00.367Z,24.20
2017-07-31T20:37:27.861Z,24.20
2017-07-31T20:39:55.333Z,24.10
2017-07-31T20:42:22.801Z,24.10
2017-07-31T20:44:51.061Z,24.10
2017-07-31T20:47:18.528Z,24.10
2017-07-31T20:49:46.001Z,24.10
2017-07-31T20:52:14.261Z,24.00
2017-07-31T20:54:42.501Z,24.00
2017-07-31T20:57:09.977Z,24.00
2017-07-31T20:59:37.464Z,23.90
2017-07-31T21:02:05.705Z,23.70
2017-07-31T21:04:33.178Z,23.70
2017-07-31T21:07:00.673Z,23.70
2017-07-31T21:09:28.165Z,23.20
2017-07-31T21:11:55.641Z,23.20
2017-07-31T21:14:23.366Z,23.20
2017-07-31T21:16:50.841Z,23.20
2017-07-31T21:19:18.317Z,23.10
2017-07-31T21:21:45.817Z,23.10
2017-07-31T21:24:13.295Z,23.10
2017-07-31T21:26:40.765Z,23.20
2017-07-31T21:29:08.261Z,23.20
2017-07-31T21:31:36.501Z,23.00
2017-07-31T21:34:03.968Z,23.00
2017-07-31T21:36:31.468Z,22.90
2017-07-31T21:38:59.261Z,22.70
2017-07-31T21:41:26.729Z,22.60
2017-07-31T21:43:54.221Z,22.50
2017-07-31T21:46:21.693Z,22.60
2017-07-31T21:48:49.929Z,22.90
2017-07-31T21:51:17.432Z,22.80
2017-07-31T21:53:44.901Z,22.80
2017-07-31T21:56:12.377Z,22.80
2017-07-31T21:58:39.869Z,22.80
2017-07-31T22:01:07.341Z,22.80
2017-07-31T22:03:34.825Z,22.60
2017-07-31T22:06:02.320Z,22.40
2017-07-31T22:08:29.793Z,22.20
2017-07-31T22:10:57.528Z,22.10
2017-07-31T22:13:25.024Z,22.00
2017-07-31T22:15:52.501Z,21.90
2017-07-31T22:18:24.569Z,21.70
2017-07-31T22:20:58.820Z,21.60
2017-07-31T22:23:26.337Z,21.60
2017-07-31T22:25:53.809Z,21.50
2017-07-31T22:28:21.285Z,21.50
2017-07-31T22:30:48.805Z,21.60
2017-07-31T22:33:17.041Z,21.50
2017-07-31T22:35:44.540Z,21.50
2017-07-31T22:38:12.801Z,21.40
2017-07-31T22:40:40.272Z,21.40
2017-07-31T22:43:08.520Z,21.40
2017-07-31T22:45:36.013Z,21.40
2017-07-31T22:48:04.920Z,21.40
2017-07-31T22:50:32.422Z,21.30
2017-07-31T22:52:59.925Z,21.30
2017-07-31T22:55:27.401Z,21.20
2017-07-31T22:57:54.869Z,21.10
2017-07-31T23:00:22.633Z,20.90
2017-07-31T23:02:50.102Z,20.80
2017-07-31T23:05:17.577Z,20.90
2017-07-31T23:07:45.073Z,20.90
2017-07-31T23:10:12.541Z,20.90
2017-07-31T23:12:40.018Z,20.90
2017-07-31T23:15:07.509Z,20.90
2017-07-31T23:17:34.976Z,20.90
2017-07-31T23:20:02.449Z,20.80
2017-07-31T23:22:30.705Z,20.60
2017-07-31T23:24:58.181Z,20.60
2017-07-31T23:27:26.417Z,20.30
2017-07-31T23:29:53.912Z,20.30
2017-07-31T23:32:22.433Z,20.30
2017-07-31T23:34:49.906Z,20.20
2017-07-31T23:37:17.393Z,20.20
2017-07-31T23:39:45.108Z,20.20
2017-07-31T23:42:12.578Z,20.10
2017-07-31T23:44:40.068Z,19.80
2017-07-31T23:47:07.537Z,19.80
2017-07-31T23:49:35.774Z,20.10
2017-07-31T23:52:03.265Z,20.00
2017-07-31T23:54:31.504Z,20.20
2017-07-31T23:56:58.976Z,20.10
2017-07-31T23:59:26.475Z,20.20
